Colmar, Luxembourg
Current Conditions -  °F | °C
As of 1:20 PM on Monday 24 Nov 2014 (Local Time) from ELLX Reporting Station
Broken Clouds Broken Clouds  
Wind Chill: 44°   Ceiling: 1400
Heat Index: 48°   Visibility: 6mi
Dew Point: 43°   Wind: 9mph
Humidity: 82%   Direction: 40°NE
Pressure: 30.24"   Gusts: NA
Location:  49.81°N, 6.1°E
Report Text: ELLX 241220Z 04008KT 9999 BKN014 09/06 Q1024 NOSIG
Loading
Personal Weather Stations






























Interactive Weather Map New forecast layout! Learn more

10-Day Weather Forecast

Advertisements
Track Severe Weather on mobile